sensor_id;sensor_type;location;lat;lon;timestamp;temperature;humidity
20463;DHT22;10390;53.566;9.980;2022-12-18T00:01:16;24.30;1.00
20463;DHT22;10390;53.566;9.980;2022-12-18T00:03:45;24.30;1.00
20463;DHT22;10390;53.566;9.980;2022-12-18T00:06:12;24.20;1.00
20463;DHT22;10390;53.566;9.980;2022-12-18T00:08:39;24.20;1.00
20463;DHT22;10390;53.566;9.980;2022-12-18T00:11:06;24.10;1.00
20463;DHT22;10390;53.566;9.980;2022-12-18T00:13:32;24.00;1.00
20463;DHT22;10390;53.566;9.980;2022-12-18T00:16:06;24.00;1.00
20463;DHT22;10390;53.566;9.980;2022-12-18T00:18:32;24.00;1.00
20463;DHT22;10390;53.566;9.980;2022-12-18T00:21:02;23.90;1.00
20463;DHT22;10390;53.566;9.980;2022-12-18T00:23:29;24.00;1.00
20463;DHT22;10390;53.566;9.980;2022-12-18T00:26:02;24.00;1.00
20463;DHT22;10390;53.566;9.980;2022-12-18T00:28:28;24.00;1.00
20463;DHT22;10390;53.566;9.980;2022-12-18T00:31:10;24.10;1.00
20463;DHT22;10390;53.566;9.980;2022-12-18T00:33:36;24.20;1.00
20463;DHT22;10390;53.566;9.980;2022-12-18T00:36:10;24.20;1.00
20463;DHT22;10390;53.566;9.980;2022-12-18T00:38:37;24.20;1.00
20463;DHT22;10390;53.566;9.980;2022-12-18T00:41:03;24.30;1.00
20463;DHT22;10390;53.566;9.980;2022-12-18T00:43:28;24.30;1.00
20463;DHT22;10390;53.566;9.980;2022-12-18T00:45:54;24.30;1.00
20463;DHT22;10390;53.566;9.980;2022-12-18T00:48:20;24.30;1.00
20463;DHT22;10390;53.566;9.980;2022-12-18T00:50:48;24.30;1.00
20463;DHT22;10390;53.566;9.980;2022-12-18T00:53:13;24.30;1.00
20463;DHT22;10390;53.566;9.980;2022-12-18T00:55:39;24.20;1.00
20463;DHT22;10390;53.566;9.980;2022-12-18T00:58:06;24.20;1.00
20463;DHT22;10390;53.566;9.980;2022-12-18T01:00:32;24.20;1.00
20463;DHT22;10390;53.566;9.980;2022-12-18T01:02:58;24.10;1.00
20463;DHT22;10390;53.566;9.980;2022-12-18T01:05:24;24.10;1.00
20463;DHT22;10390;53.566;9.980;2022-12-18T01:07:50;24.00;1.00
20463;DHT22;10390;53.566;9.980;2022-12-18T01:10:16;24.00;1.00
20463;DHT22;10390;53.566;9.980;2022-12-18T01:12:42;23.90;1.00
20463;DHT22;10390;53.566;9.980;2022-12-18T01:15:09;23.90;1.00
20463;DHT22;10390;53.566;9.980;2022-12-18T01:17:35;23.80;1.00
20463;DHT22;10390;53.566;9.980;2022-12-18T01:20:00;23.80;1.00
20463;DHT22;10390;53.566;9.980;2022-12-18T01:22:26;23.80;1.00
20463;DHT22;10390;53.566;9.980;2022-12-18T01:24:51;23.90;1.00
20463;DHT22;10390;53.566;9.980;2022-12-18T01:27:17;23.90;1.00
20463;DHT22;10390;53.566;9.980;2022-12-18T01:29:43;24.00;1.00
20463;DHT22;10390;53.566;9.980;2022-12-18T01:32:08;24.00;1.00
20463;DHT22;10390;53.566;9.980;2022-12-18T01:34:36;24.10;1.00
20463;DHT22;10390;53.566;9.980;2022-12-18T01:37:03;24.10;1.00
20463;DHT22;10390;53.566;9.980;2022-12-18T01:39:29;24.20;1.00
20463;DHT22;10390;53.566;9.980;2022-12-18T01:41:55;24.10;1.00
20463;DHT22;10390;53.566;9.980;2022-12-18T01:47:39;24.20;1.00
20463;DHT22;10390;53.566;9.980;2022-12-18T01:53:02;24.10;1.00
20463;DHT22;10390;53.566;9.980;2022-12-18T01:55:32;24.10;1.00
20463;DHT22;10390;53.566;9.980;2022-12-18T01:58:00;24.00;1.00
20463;DHT22;10390;53.566;9.980;2022-12-18T02:00:27;24.00;1.00
20463;DHT22;10390;53.566;9.980;2022-12-18T02:02:53;24.00;1.00
20463;DHT22;10390;53.566;9.980;2022-12-18T02:05:27;23.90;1.00
20463;DHT22;10390;53.566;9.980;2022-12-18T02:15:46;23.70;1.00
20463;DHT22;10390;53.566;9.980;2022-12-18T02:18:21;23.70;1.00
20463;DHT22;10390;53.566;9.980;2022-12-18T02:21:08;23.70;1.00
20463;DHT22;10390;53.566;9.980;2022-12-18T02:28:49;23.80;1.00
20463;DHT22;10390;53.566;9.980;2022-12-18T02:31:26;23.80;1.00
20463;DHT22;10390;53.566;9.980;2022-12-18T02:33:55;23.80;1.00
20463;DHT22;10390;53.566;9.980;2022-12-18T02:36:22;23.90;1.00
20463;DHT22;10390;53.566;9.980;2022-12-18T02:38:49;24.00;1.00
20463;DHT22;10390;53.566;9.980;2022-12-18T02:41:16;24.00;1.00
20463;DHT22;10390;53.566;9.980;2022-12-18T02:43:47;24.00;1.00
20463;DHT22;10390;53.566;9.980;2022-12-18T02:46:35;24.00;1.00
20463;DHT22;10390;53.566;9.980;2022-12-18T02:49:10;24.00;1.00
20463;DHT22;10390;53.566;9.980;2022-12-18T02:52:08;24.00;1.00
20463;DHT22;10390;53.566;9.980;2022-12-18T02:57:34;23.90;1.00
20463;DHT22;10390;53.566;9.980;2022-12-18T03:00:10;23.90;1.00
20463;DHT22;10390;53.566;9.980;2022-12-18T03:05:19;23.90;1.00
20463;DHT22;10390;53.566;9.980;2022-12-18T03:07:56;23.80;1.00
20463;DHT22;10390;53.566;9.980;2022-12-18T03:10:28;23.70;1.00
20463;DHT22;10390;53.566;9.980;2022-12-18T03:13:02;23.70;1.00
20463;DHT22;10390;53.566;9.980;2022-12-18T03:15:40;23.70;1.00
20463;DHT22;10390;53.566;9.980;2022-12-18T03:18:15;23.60;1.00
20463;DHT22;10390;53.566;9.980;2022-12-18T03:20:44;23.60;1.00
20463;DHT22;10390;53.566;9.980;2022-12-18T03:23:14;23.60;1.00
20463;DHT22;10390;53.566;9.980;2022-12-18T03:25:43;23.60;1.00
20463;DHT22;10390;53.566;9.980;2022-12-18T03:28:15;23.60;1.00
20463;DHT22;10390;53.566;9.980;2022-12-18T03:30:43;23.70;1.00
20463;DHT22;10390;53.566;9.980;2022-12-18T03:36:08;23.80;1.00
20463;DHT22;10390;53.566;9.980;2022-12-18T03:38:33;23.80;1.00
20463;DHT22;10390;53.566;9.980;2022-12-18T03:41:47;23.80;1.00
20463;DHT22;10390;53.566;9.980;2022-12-18T03:44:11;23.90;1.00
20463;DHT22;10390;53.566;9.980;2022-12-18T03:47:10;23.90;1.00
20463;DHT22;10390;53.566;9.980;2022-12-18T03:52:48;23.90;1.00
20463;DHT22;10390;53.566;9.980;2022-12-18T03:55:15;23.90;1.00
20463;DHT22;10390;53.566;9.980;2022-12-18T03:57:42;23.90;1.00
20463;DHT22;10390;53.566;9.980;2022-12-18T04:00:12;23.80;1.00
20463;DHT22;10390;53.566;9.980;2022-12-18T04:02:40;23.80;1.00
20463;DHT22;10390;53.566;9.980;2022-12-18T04:05:08;23.80;1.00
20463;DHT22;10390;53.566;9.980;2022-12-18T04:07:36;23.70;1.00
20463;DHT22;10390;53.566;9.980;2022-12-18T04:10:03;23.70;1.00
20463;DHT22;10390;53.566;9.980;2022-12-18T04:12:30;23.70;1.00
20463;DHT22;10390;53.566;9.980;2022-12-18T04:14:56;23.70;1.00
20463;DHT22;10390;53.566;9.980;2022-12-18T04:17:22;23.60;1.00
20463;DHT22;10390;53.566;9.980;2022-12-18T04:19:48;23.60;1.00
20463;DHT22;10390;53.566;9.980;2022-12-18T04:22:13;23.60;1.00
20463;DHT22;10390;53.566;9.980;2022-12-18T04:24:39;23.60;1.00
20463;DHT22;10390;53.566;9.980;2022-12-18T04:27:05;23.60;1.00
20463;DHT22;10390;53.566;9.980;2022-12-18T04:29:30;23.60;1.00
20463;DHT22;10390;53.566;9.980;2022-12-18T04:31:56;23.70;1.00
20463;DHT22;10390;53.566;9.980;2022-12-18T04:34:22;23.70;1.00
20463;DHT22;10390;53.566;9.980;2022-12-18T04:36:47;23.70;1.00
20463;DHT22;10390;53.566;9.980;2022-12-18T04:39:14;23.80;1.00
20463;DHT22;10390;53.566;9.980;2022-12-18T04:41:42;23.80;1.00
20463;DHT22;10390;53.566;9.980;2022-12-18T04:44:08;23.80;1.00
20463;DHT22;10390;53.566;9.980;2022-12-18T04:46:33;23.80;1.00
20463;DHT22;10390;53.566;9.980;2022-12-18T04:48:59;23.80;1.00
20463;DHT22;10390;53.566;9.980;2022-12-18T04:51:24;23.80;1.00
20463;DHT22;10390;53.566;9.980;2022-12-18T04:53:50;23.80;1.00
20463;DHT22;10390;53.566;9.980;2022-12-18T04:56:16;23.80;1.00
20463;DHT22;10390;53.566;9.980;2022-12-18T04:58:43;23.80;1.00
20463;DHT22;10390;53.566;9.980;2022-12-18T05:01:10;23.70;1.00
20463;DHT22;10390;53.566;9.980;2022-12-18T05:03:37;23.70;1.00
20463;DHT22;10390;53.566;9.980;2022-12-18T05:06:04;23.60;1.00
20463;DHT22;10390;53.566;9.980;2022-12-18T05:08:30;23.60;1.00
20463;DHT22;10390;53.566;9.980;2022-12-18T05:11:04;23.60;1.00
20463;DHT22;10390;53.566;9.980;2022-12-18T05:13:30;23.60;1.00
20463;DHT22;10390;53.566;9.980;2022-12-18T05:15:56;23.50;1.00
20463;DHT22;10390;53.566;9.980;2022-12-18T05:18:25;23.50;1.00
20463;DHT22;10390;53.566;9.980;2022-12-18T05:20:51;23.50;1.00
20463;DHT22;10390;53.566;9.980;2022-12-18T05:23:18;23.50;1.00
20463;DHT22;10390;53.566;9.980;2022-12-18T05:25:53;23.50;1.00
20463;DHT22;10390;53.566;9.980;2022-12-18T05:28:19;23.50;1.00
20463;DHT22;10390;53.566;9.980;2022-12-18T05:30:49;23.60;1.00
20463;DHT22;10390;53.566;9.980;2022-12-18T05:33:16;23.60;1.00
20463;DHT22;10390;53.566;9.980;2022-12-18T05:35:42;23.70;1.00
20463;DHT22;10390;53.566;9.980;2022-12-18T05:38:08;23.70;1.00
20463;DHT22;10390;53.566;9.980;2022-12-18T05:40:33;23.70;1.00
20463;DHT22;10390;53.566;9.980;2022-12-18T05:42:59;23.80;1.00
20463;DHT22;10390;53.566;9.980;2022-12-18T05:45:24;23.80;1.00
20463;DHT22;10390;53.566;9.980;2022-12-18T05:47:50;23.80;1.00
20463;DHT22;10390;53.566;9.980;2022-12-18T05:50:16;23.80;1.00
20463;DHT22;10390;53.566;9.980;2022-12-18T05:52:41;23.70;1.00
20463;DHT22;10390;53.566;9.980;2022-12-18T05:55:07;23.70;1.00
20463;DHT22;10390;53.566;9.980;2022-12-18T05:57:33;23.70;1.00
20463;DHT22;10390;53.566;9.980;2022-12-18T05:59:58;23.70;1.00
20463;DHT22;10390;53.566;9.980;2022-12-18T06:02:24;23.60;1.00
20463;DHT22;10390;53.566;9.980;2022-12-18T06:04:50;23.60;1.00
20463;DHT22;10390;53.566;9.980;2022-12-18T06:07:15;23.60;1.00
20463;DHT22;10390;53.566;9.980;2022-12-18T06:09:41;23.50;1.00
20463;DHT22;10390;53.566;9.980;2022-12-18T06:12:06;23.50;1.00
20463;DHT22;10390;53.566;9.980;2022-12-18T06:14:32;23.40;1.00
20463;DHT22;10390;53.566;9.980;2022-12-18T06:16:58;23.40;1.00
20463;DHT22;10390;53.566;9.980;2022-12-18T06:19:23;23.40;1.00
20463;DHT22;10390;53.566;9.980;2022-12-18T06:21:49;23.40;1.00
20463;DHT22;10390;53.566;9.980;2022-12-18T06:24:15;23.40;1.00
20463;DHT22;10390;53.566;9.980;2022-12-18T06:26:41;23.40;1.00
20463;DHT22;10390;53.566;9.980;2022-12-18T06:29:06;23.50;1.00
20463;DHT22;10390;53.566;9.980;2022-12-18T06:31:32;23.60;1.00
20463;DHT22;10390;53.566;9.980;2022-12-18T06:33:58;23.60;1.00
20463;DHT22;10390;53.566;9.980;2022-12-18T06:36:23;23.70;1.00
20463;DHT22;10390;53.566;9.980;2022-12-18T06:38:49;23.70;1.00
20463;DHT22;10390;53.566;9.980;2022-12-18T06:41:20;23.70;1.00
20463;DHT22;10390;53.566;9.980;2022-12-18T06:43:46;23.70;1.00
20463;DHT22;10390;53.566;9.980;2022-12-18T06:46:12;23.70;1.00
20463;DHT22;10390;53.566;9.980;2022-12-18T06:48:38;23.70;1.00
20463;DHT22;10390;53.566;9.980;2022-12-18T06:51:04;23.70;1.00
20463;DHT22;10390;53.566;9.980;2022-12-18T06:53:29;23.70;1.00
20463;DHT22;10390;53.566;9.980;2022-12-18T06:56:04;23.60;1.00
20463;DHT22;10390;53.566;9.980;2022-12-18T06:58:30;23.60;1.00
20463;DHT22;10390;53.566;9.980;2022-12-18T07:01:01;23.60;1.00
20463;DHT22;10390;53.566;9.980;2022-12-18T07:03:26;23.50;1.00
20463;DHT22;10390;53.566;9.980;2022-12-18T07:05:52;23.50;1.00
20463;DHT22;10390;53.566;9.980;2022-12-18T07:08:18;23.40;1.00
20463;DHT22;10390;53.566;9.980;2022-12-18T07:10:44;23.40;1.00
20463;DHT22;10390;53.566;9.980;2022-12-18T07:13:09;23.40;1.00
20463;DHT22;10390;53.566;9.980;2022-12-18T07:15:35;23.30;1.00
20463;DHT22;10390;53.566;9.980;2022-12-18T07:18:01;23.30;1.00
20463;DHT22;10390;53.566;9.980;2022-12-18T07:20:26;23.30;1.00
20463;DHT22;10390;53.566;9.980;2022-12-18T07:22:52;23.30;1.00
20463;DHT22;10390;53.566;9.980;2022-12-18T07:25:17;23.30;1.00
20463;DHT22;10390;53.566;9.980;2022-12-18T07:27:43;23.30;1.00
20463;DHT22;10390;53.566;9.980;2022-12-18T07:30:09;23.40;1.00
20463;DHT22;10390;53.566;9.980;2022-12-18T07:32:35;23.40;1.00
20463;DHT22;10390;53.566;9.980;2022-12-18T07:35:01;23.50;1.00
20463;DHT22;10390;53.566;9.980;2022-12-18T07:37:26;23.50;1.00
20463;DHT22;10390;53.566;9.980;2022-12-18T07:39:52;23.60;1.00
20463;DHT22;10390;53.566;9.980;2022-12-18T07:42:17;23.60;1.00
20463;DHT22;10390;53.566;9.980;2022-12-18T07:44:59;23.60;1.00
20463;DHT22;10390;53.566;9.980;2022-12-18T07:47:25;23.60;1.00
20463;DHT22;10390;53.566;9.980;2022-12-18T07:49:51;23.60;1.00
20463;DHT22;10390;53.566;9.980;2022-12-18T07:52:17;23.60;1.00
20463;DHT22;10390;53.566;9.980;2022-12-18T07:54:42;23.60;1.00
20463;DHT22;10390;53.566;9.980;2022-12-18T07:57:08;23.60;1.00
20463;DHT22;10390;53.566;9.980;2022-12-18T07:59:34;23.50;1.00
20463;DHT22;10390;53.566;9.980;2022-12-18T08:02:00;23.50;1.00
20463;DHT22;10390;53.566;9.980;2022-12-18T08:04:25;23.50;1.00
20463;DHT22;10390;53.566;9.980;2022-12-18T08:06:51;23.40;1.00
20463;DHT22;10390;53.566;9.980;2022-12-18T08:09:17;23.40;1.00
20463;DHT22;10390;53.566;9.980;2022-12-18T08:11:42;23.40;1.00
20463;DHT22;10390;53.566;9.980;2022-12-18T08:14:08;23.30;1.00
20463;DHT22;10390;53.566;9.980;2022-12-18T08:16:34;23.30;1.00
20463;DHT22;10390;53.566;9.980;2022-12-18T08:19:00;23.20;1.00
20463;DHT22;10390;53.566;9.980;2022-12-18T08:21:27;23.20;1.00
20463;DHT22;10390;53.566;9.980;2022-12-18T08:23:56;23.30;1.00
20463;DHT22;10390;53.566;9.980;2022-12-18T08:26:23;23.30;1.00
20463;DHT22;10390;53.566;9.980;2022-12-18T08:28:50;23.30;1.00
20463;DHT22;10390;53.566;9.980;2022-12-18T08:31:17;23.30;1.00
20463;DHT22;10390;53.566;9.980;2022-12-18T08:33:42;23.40;1.00
20463;DHT22;10390;53.566;9.980;2022-12-18T08:36:09;23.40;1.00
20463;DHT22;10390;53.566;9.980;2022-12-18T08:38:35;23.40;1.00
20463;DHT22;10390;53.566;9.980;2022-12-18T08:41:06;23.40;1.00
20463;DHT22;10390;53.566;9.980;2022-12-18T08:43:32;23.40;1.00
20463;DHT22;10390;53.566;9.980;2022-12-18T08:46:17;23.40;1.00
20463;DHT22;10390;53.566;9.980;2022-12-18T08:48:43;23.40;1.00
20463;DHT22;10390;53.566;9.980;2022-12-18T08:51:09;23.40;1.00
20463;DHT22;10390;53.566;9.980;2022-12-18T08:53:35;23.40;1.00
20463;DHT22;10390;53.566;9.980;2022-12-18T08:56:01;23.40;1.00
20463;DHT22;10390;53.566;9.980;2022-12-18T08:58:27;23.40;1.00
20463;DHT22;10390;53.566;9.980;2022-12-18T09:00:52;23.40;1.00
20463;DHT22;10390;53.566;9.980;2022-12-18T09:03:19;23.40;1.00
20463;DHT22;10390;53.566;9.980;2022-12-18T09:05:48;23.40;1.00
20463;DHT22;10390;53.566;9.980;2022-12-18T09:08:14;23.40;1.00
20463;DHT22;10390;53.566;9.980;2022-12-18T09:10:43;23.40;1.00
20463;DHT22;10390;53.566;9.980;2022-12-18T09:13:10;23.40;1.00
20463;DHT22;10390;53.566;9.980;2022-12-18T09:15:46;23.40;1.00
20463;DHT22;10390;53.566;9.980;2022-12-18T09:18:13;23.40;1.00
20463;DHT22;10390;53.566;9.980;2022-12-18T09:20:39;23.40;1.00
20463;DHT22;10390;53.566;9.980;2022-12-18T09:23:06;23.40;1.00
20463;DHT22;10390;53.566;9.980;2022-12-18T09:25:32;23.40;1.00
20463;DHT22;10390;53.566;9.980;2022-12-18T09:27:59;23.40;1.00
20463;DHT22;10390;53.566;9.980;2022-12-18T09:30:26;23.40;1.00
20463;DHT22;10390;53.566;9.980;2022-12-18T09:32:55;23.40;1.00
20463;DHT22;10390;53.566;9.980;2022-12-18T09:35:21;23.40;1.00
20463;DHT22;10390;53.566;9.980;2022-12-18T09:37:46;23.40;1.00
20463;DHT22;10390;53.566;9.980;2022-12-18T09:40:19;23.50;1.00
20463;DHT22;10390;53.566;9.980;2022-12-18T09:42:52;23.50;1.00
20463;DHT22;10390;53.566;9.980;2022-12-18T09:45:20;23.50;1.00
20463;DHT22;10390;53.566;9.980;2022-12-18T09:47:47;23.50;1.00
20463;DHT22;10390;53.566;9.980;2022-12-18T09:50:32;23.50;1.00
20463;DHT22;10390;53.566;9.980;2022-12-18T09:53:04;23.50;1.00
20463;DHT22;10390;53.566;9.980;2022-12-18T09:55:40;23.60;1.00
20463;DHT22;10390;53.566;9.980;2022-12-18T10:00:53;23.60;1.00
20463;DHT22;10390;53.566;9.980;2022-12-18T10:03:19;23.60;1.00
20463;DHT22;10390;53.566;9.980;2022-12-18T10:06:07;23.60;1.00
20463;DHT22;10390;53.566;9.980;2022-12-18T10:08:42;23.60;1.00
20463;DHT22;10390;53.566;9.980;2022-12-18T10:17:07;23.70;1.00
20463;DHT22;10390;53.566;9.980;2022-12-18T10:19:49;23.70;1.00
20463;DHT22;10390;53.566;9.980;2022-12-18T10:27:28;23.70;1.00
20463;DHT22;10390;53.566;9.980;2022-12-18T10:29:55;23.70;1.00
20463;DHT22;10390;53.566;9.980;2022-12-18T10:32:26;23.80;1.00
20463;DHT22;10390;53.566;9.980;2022-12-18T10:34:55;23.70;1.00
20463;DHT22;10390;53.566;9.980;2022-12-18T10:37:24;23.80;1.00
20463;DHT22;10390;53.566;9.980;2022-12-18T10:40:13;23.80;1.00
20463;DHT22;10390;53.566;9.980;2022-12-18T10:42:39;23.80;1.00
20463;DHT22;10390;53.566;9.980;2022-12-18T10:45:11;23.80;1.00
20463;DHT22;10390;53.566;9.980;2022-12-18T10:47:42;23.80;1.00
20463;DHT22;10390;53.566;9.980;2022-12-18T10:50:29;23.90;1.00
20463;DHT22;10390;53.566;9.980;2022-12-18T10:53:03;23.90;1.00
20463;DHT22;10390;53.566;9.980;2022-12-18T10:55:35;24.00;1.00
20463;DHT22;10390;53.566;9.980;2022-12-18T11:01:15;24.00;1.00
20463;DHT22;10390;53.566;9.980;2022-12-18T11:03:44;24.00;1.00
20463;DHT22;10390;53.566;9.980;2022-12-18T11:06:18;24.00;1.00
20463;DHT22;10390;53.566;9.980;2022-12-18T11:09:04;24.00;1.00
20463;DHT22;10390;53.566;9.980;2022-12-18T11:11:32;24.00;1.00
20463;DHT22;10390;53.566;9.980;2022-12-18T11:14:18;24.00;1.00
20463;DHT22;10390;53.566;9.980;2022-12-18T11:16:47;24.00;1.00
20463;DHT22;10390;53.566;9.980;2022-12-18T11:19:34;24.00;1.00
20463;DHT22;10390;53.566;9.980;2022-12-18T11:22:02;24.00;1.00
20463;DHT22;10390;53.566;9.980;2022-12-18T11:24:34;23.90;1.00
20463;DHT22;10390;53.566;9.980;2022-12-18T11:27:02;23.90;1.00
20463;DHT22;10390;53.566;9.980;2022-12-18T11:29:39;23.90;1.00
20463;DHT22;10390;53.566;9.980;2022-12-18T11:32:34;23.80;1.00
20463;DHT22;10390;53.566;9.980;2022-12-18T11:35:11;23.80;1.00
20463;DHT22;10390;53.566;9.980;2022-12-18T11:37:42;23.90;1.00
20463;DHT22;10390;53.566;9.980;2022-12-18T11:40:16;23.80;1.00
20463;DHT22;10390;53.566;9.980;2022-12-18T11:42:50;23.90;1.00
20463;DHT22;10390;53.566;9.980;2022-12-18T11:45:29;23.90;1.00
20463;DHT22;10390;53.566;9.980;2022-12-18T11:48:01;23.90;1.00
20463;DHT22;10390;53.566;9.980;2022-12-18T11:53:01;23.90;1.00
20463;DHT22;10390;53.566;9.980;2022-12-18T11:58:12;23.90;1.00
20463;DHT22;10390;53.566;9.980;2022-12-18T12:14:42;23.90;1.00
20463;DHT22;10390;53.566;9.980;2022-12-18T12:17:31;24.00;1.00
20463;DHT22;10390;53.566;9.980;2022-12-18T12:20:39;23.90;1.00
20463;DHT22;10390;53.566;9.980;2022-12-18T12:23:27;23.90;1.00
20463;DHT22;10390;53.566;9.980;2022-12-18T12:25:59;23.80;1.00
20463;DHT22;10390;53.566;9.980;2022-12-18T12:31:16;23.70;1.00
20463;DHT22;10390;53.566;9.980;2022-12-18T12:34:23;23.70;1.00
20463;DHT22;10390;53.566;9.980;2022-12-18T12:39:37;23.70;1.00
20463;DHT22;10390;53.566;9.980;2022-12-18T12:42:12;23.80;1.00
20463;DHT22;10390;53.566;9.980;2022-12-18T12:45:01;24.00;1.00
20463;DHT22;10390;53.566;9.980;2022-12-18T12:47:33;24.10;1.00
20463;DHT22;10390;53.566;9.980;2022-12-18T12:50:11;24.20;1.00
20463;DHT22;10390;53.566;9.980;2022-12-18T12:52:46;24.30;1.00
20463;DHT22;10390;53.566;9.980;2022-12-18T12:55:21;24.40;1.00
20463;DHT22;10390;53.566;9.980;2022-12-18T12:58:21;24.40;1.00
20463;DHT22;10390;53.566;9.980;2022-12-18T13:01:16;24.40;1.00
20463;DHT22;10390;53.566;9.980;2022-12-18T13:09:06;24.40;1.00
20463;DHT22;10390;53.566;9.980;2022-12-18T13:11:42;24.30;1.00
20463;DHT22;10390;53.566;9.980;2022-12-18T13:14:31;24.30;1.00
20463;DHT22;10390;53.566;9.980;2022-12-18T13:17:24;24.30;1.00
20463;DHT22;10390;53.566;9.980;2022-12-18T13:20:06;24.20;1.00
20463;DHT22;10390;53.566;9.980;2022-12-18T13:22:36;24.20;1.00
20463;DHT22;10390;53.566;9.980;2022-12-18T13:25:21;24.10;1.00
20463;DHT22;10390;53.566;9.980;2022-12-18T13:40:55;23.80;1.00
20463;DHT22;10390;53.566;9.980;2022-12-18T13:45:50;23.80;1.00
20463;DHT22;10390;53.566;9.980;2022-12-18T13:48:25;23.80;1.00
20463;DHT22;10390;53.566;9.980;2022-12-18T13:51:04;23.70;1.00
20463;DHT22;10390;53.566;9.980;2022-12-18T13:53:36;23.80;1.00
20463;DHT22;10390;53.566;9.980;2022-12-18T13:56:03;23.80;1.00
20463;DHT22;10390;53.566;9.980;2022-12-18T13:58:29;23.90;1.00
20463;DHT22;10390;53.566;9.980;2022-12-18T14:00:55;23.90;1.00
20463;DHT22;10390;53.566;9.980;2022-12-18T14:03:24;23.90;1.00
20463;DHT22;10390;53.566;9.980;2022-12-18T14:06:07;23.90;1.00
20463;DHT22;10390;53.566;9.980;2022-12-18T14:08:38;24.00;1.00
20463;DHT22;10390;53.566;9.980;2022-12-18T14:11:05;24.00;1.00
20463;DHT22;10390;53.566;9.980;2022-12-18T14:13:35;24.00;1.00
20463;DHT22;10390;53.566;9.980;2022-12-18T14:16:04;24.00;1.00
20463;DHT22;10390;53.566;9.980;2022-12-18T14:18:48;24.00;1.00
20463;DHT22;10390;53.566;9.980;2022-12-18T14:21:19;23.90;1.00
20463;DHT22;10390;53.566;9.980;2022-12-18T14:23:46;23.80;1.00
20463;DHT22;10390;53.566;9.980;2022-12-18T14:26:26;23.80;1.00
20463;DHT22;10390;53.566;9.980;2022-12-18T14:28:55;23.80;1.00
20463;DHT22;10390;53.566;9.980;2022-12-18T14:31:30;23.70;1.00
20463;DHT22;10390;53.566;9.980;2022-12-18T14:33:57;23.70;1.00
20463;DHT22;10390;53.566;9.980;2022-12-18T14:36:25;23.60;1.00
20463;DHT22;10390;53.566;9.980;2022-12-18T14:38:53;23.60;1.00
20463;DHT22;10390;53.566;9.980;2022-12-18T14:41:19;23.60;1.00
20463;DHT22;10390;53.566;9.980;2022-12-18T14:43:48;23.50;1.00
20463;DHT22;10390;53.566;9.980;2022-12-18T14:46:30;23.50;1.00
20463;DHT22;10390;53.566;9.980;2022-12-18T14:48:56;23.50;1.00
20463;DHT22;10390;53.566;9.980;2022-12-18T14:51:24;23.50;1.00
20463;DHT22;10390;53.566;9.980;2022-12-18T14:53:55;23.50;1.00
20463;DHT22;10390;53.566;9.980;2022-12-18T14:56:36;23.50;1.00
20463;DHT22;10390;53.566;9.980;2022-12-18T14:59:05;23.60;1.00
20463;DHT22;10390;53.566;9.980;2022-12-18T15:01:39;23.60;1.00
20463;DHT22;10390;53.566;9.980;2022-12-18T15:07:07;23.60;1.00
20463;DHT22;10390;53.566;9.980;2022-12-18T15:09:33;23.60;1.00
20463;DHT22;10390;53.566;9.980;2022-12-18T15:12:00;23.60;1.00
20463;DHT22;10390;53.566;9.980;2022-12-18T15:17:02;23.50;1.00
20463;DHT22;10390;53.566;9.980;2022-12-18T15:19:38;23.50;1.00
20463;DHT22;10390;53.566;9.980;2022-12-18T15:22:12;23.40;1.00
20463;DHT22;10390;53.566;9.980;2022-12-18T15:24:42;23.40;1.00
20463;DHT22;10390;53.566;9.980;2022-12-18T15:27:21;23.40;1.00
20463;DHT22;10390;53.566;9.980;2022-12-18T15:32:39;23.30;1.00
20463;DHT22;10390;53.566;9.980;2022-12-18T15:37:37;23.20;1.00
20463;DHT22;10390;53.566;9.980;2022-12-18T15:40:07;23.20;1.00
20463;DHT22;10390;53.566;9.980;2022-12-18T15:42:33;23.20;1.00
20463;DHT22;10390;53.566;9.980;2022-12-18T15:45:17;23.20;1.00
20463;DHT22;10390;53.566;9.980;2022-12-18T15:47:43;23.10;1.00
20463;DHT22;10390;53.566;9.980;2022-12-18T15:50:09;23.10;1.00
20463;DHT22;10390;53.566;9.980;2022-12-18T15:52:44;23.10;1.00
20463;DHT22;10390;53.566;9.980;2022-12-18T15:55:21;23.10;1.00
20463;DHT22;10390;53.566;9.980;2022-12-18T15:58:06;23.20;1.00
20463;DHT22;10390;53.566;9.980;2022-12-18T16:00:37;23.20;1.00
20463;DHT22;10390;53.566;9.980;2022-12-18T16:03:04;23.20;1.00
20463;DHT22;10390;53.566;9.980;2022-12-18T16:05:30;23.20;1.00
20463;DHT22;10390;53.566;9.980;2022-12-18T16:07:56;23.20;1.00
20463;DHT22;10390;53.566;9.980;2022-12-18T16:10:22;23.20;1.00
20463;DHT22;10390;53.566;9.980;2022-12-18T16:12:49;23.10;1.00
20463;DHT22;10390;53.566;9.980;2022-12-18T16:15:15;23.10;1.00
20463;DHT22;10390;53.566;9.980;2022-12-18T16:17:42;23.10;1.00
20463;DHT22;10390;53.566;9.980;2022-12-18T16:20:16;23.10;1.00
20463;DHT22;10390;53.566;9.980;2022-12-18T16:22:43;23.10;1.00
20463;DHT22;10390;53.566;9.980;2022-12-18T16:25:17;23.10;1.00
20463;DHT22;10390;53.566;9.980;2022-12-18T16:27:46;23.00;1.00
20463;DHT22;10390;53.566;9.980;2022-12-18T16:30:26;23.00;1.00
20463;DHT22;10390;53.566;9.980;2022-12-18T16:32:53;23.00;1.00
20463;DHT22;10390;53.566;9.980;2022-12-18T16:35:20;22.90;1.00
20463;DHT22;10390;53.566;9.980;2022-12-18T16:37:46;22.90;1.00
20463;DHT22;10390;53.566;9.980;2022-12-18T16:40:14;22.90;1.00
20463;DHT22;10390;53.566;9.980;2022-12-18T16:42:42;22.90;1.00
20463;DHT22;10390;53.566;9.980;2022-12-18T16:45:11;22.90;1.00
20463;DHT22;10390;53.566;9.980;2022-12-18T16:47:37;22.80;1.00
20463;DHT22;10390;53.566;9.980;2022-12-18T16:50:03;22.80;1.00
20463;DHT22;10390;53.566;9.980;2022-12-18T16:52:29;22.90;1.00
20463;DHT22;10390;53.566;9.980;2022-12-18T16:54:55;22.90;1.00
20463;DHT22;10390;53.566;9.980;2022-12-18T16:57:21;23.00;1.00
20463;DHT22;10390;53.566;9.980;2022-12-18T16:59:47;23.00;1.00
20463;DHT22;10390;53.566;9.980;2022-12-18T17:02:18;23.10;1.00
20463;DHT22;10390;53.566;9.980;2022-12-18T17:04:44;23.10;1.00
20463;DHT22;10390;53.566;9.980;2022-12-18T17:07:10;23.10;1.00
20463;DHT22;10390;53.566;9.980;2022-12-18T17:09:37;23.10;1.00
20463;DHT22;10390;53.566;9.980;2022-12-18T17:12:03;23.10;1.00
20463;DHT22;10390;53.566;9.980;2022-12-18T17:14:29;23.20;1.00
20463;DHT22;10390;53.566;9.980;2022-12-18T17:16:55;23.10;1.00
20463;DHT22;10390;53.566;9.980;2022-12-18T17:19:22;23.20;1.00
20463;DHT22;10390;53.566;9.980;2022-12-18T17:21:49;23.20;1.00
20463;DHT22;10390;53.566;9.980;2022-12-18T17:24:15;23.10;1.00
20463;DHT22;10390;53.566;9.980;2022-12-18T17:26:41;23.10;1.00
20463;DHT22;10390;53.566;9.980;2022-12-18T17:29:07;23.10;1.00
20463;DHT22;10390;53.566;9.980;2022-12-18T17:31:33;23.10;1.00
20463;DHT22;10390;53.566;9.980;2022-12-18T17:34:01;23.00;1.00
20463;DHT22;10390;53.566;9.980;2022-12-18T17:36:27;23.00;1.00
20463;DHT22;10390;53.566;9.980;2022-12-18T17:38:57;23.00;1.00
20463;DHT22;10390;53.566;9.980;2022-12-18T17:41:24;22.90;1.00
20463;DHT22;10390;53.566;9.980;2022-12-18T17:43:52;22.90;1.00
20463;DHT22;10390;53.566;9.980;2022-12-18T17:46:17;22.80;1.00